Time,TemperatureF,DewpointF,PressureIn,WindDirection,WindDirectionDegrees,WindSpeedMPH,WindSpeedGustMPH,Humidity,HourlyPrecipIn,Conditions,Clouds,dailyrainin,SoftwareType,DateUTC
2013-05-20 00:01:00,58.8,53.7,30.15,South,180,8.1,23.0,83,0.00,OVC,,0.00,WeatherDisplay:10.37,2013-05-20 04:01:00,
2013-05-20 00:02:00,58.8,53.7,30.15,South,180,8.1,18.4,83,0.00,OVC,,0.00,WeatherDisplay:10.37,2013-05-20 04:02:00,
2013-05-20 00:04:00,58.8,53.7,30.15,South,180,8.1,18.4,83,0.00,OVC,,0.00,WeatherDisplay:10.37,2013-05-20 04:04:00,
2013-05-20 00:09:00,58.8,53.7,30.15,South,180,8.1,18.4,83,0.00,OVC,,0.00,WeatherDisplay:10.37,2013-05-20 04:09:00,
2013-05-20 00:14:00,58.8,53.7,30.15,South,180,8.1,18.4,83,0.00,OVC,,0.00,WeatherDisplay:10.37,2013-05-20 04:14:00,
2013-05-20 00:19:00,58.8,53.7,30.15,South,180,8.1,18.4,83,0.00,OVC,,0.00,WeatherDisplay:10.37,2013-05-20 04:19:00,
2013-05-20 00:24:00,58.8,53.7,30.15,South,180,8.1,18.4,83,0.00,OVC,,0.00,WeatherDisplay:10.37,2013-05-20 04:24:00,
2013-05-20 00:29:00,58.8,53.7,30.15,South,180,8.1,18.4,83,0.00,OVC,,0.00,WeatherDisplay:10.37,2013-05-20 04:29:00,
2013-05-20 00:34:00,58.8,55.0,30.15,South,170,10.4,10.4,87,0.00,OVC,,0.00,WeatherDisplay:10.37,2013-05-20 04:34:00,
2013-05-20 00:39:00,58.8,55.0,30.15,South,170,10.4,10.4,87,0.00,OVC,,0.00,WeatherDisplay:10.37,2013-05-20 04:39:00,
2013-05-20 00:44:00,58.8,55.0,30.15,South,170,10.4,10.4,87,0.00,OVC,,0.00,WeatherDisplay:10.37,2013-05-20 04:44:00,
2013-05-20 00:49:00,58.8,55.0,30.15,South,170,10.4,10.4,87,0.00,OVC,,0.00,WeatherDisplay:10.37,2013-05-20 04:49:00,
2013-05-20 00:54:00,58.8,55.0,30.15,South,170,10.4,10.4,87,0.00,OVC,,0.00,WeatherDisplay:10.37,2013-05-20 04:54:00,
2013-05-20 00:59:00,58.8,55.0,30.15,South,170,10.4,10.4,87,0.00,OVC,,0.00,WeatherDisplay:10.37,2013-05-20 04:59:00,
2013-05-20 01:04:00,58.8,53.7,30.15,South,180,9.2,9.2,83,0.00,OVC,,0.00,WeatherDisplay:10.37,2013-05-20 05:04:00,
2013-05-20 01:09:00,58.8,53.7,30.15,South,180,9.2,9.2,83,0.00,OVC,,0.00,WeatherDisplay:10.37,2013-05-20 05:09:00,
2013-05-20 01:14:00,58.8,53.7,30.15,South,180,9.2,9.2,83,0.00,OVC,,0.00,WeatherDisplay:10.37,2013-05-20 05:14:00,
2013-05-20 01:19:00,58.8,53.7,30.15,South,180,9.2,9.2,83,0.00,OVC,,0.00,WeatherDisplay:10.37,2013-05-20 05:19:00,
2013-05-20 01:24:00,58.8,53.7,30.15,South,180,9.2,9.2,83,0.00,OVC,,0.00,WeatherDisplay:10.37,2013-05-20 05:24:00,
2013-05-20 01:29:00,58.8,53.7,30.15,South,180,9.2,9.2,83,0.00,OVC,,0.00,WeatherDisplay:10.37,2013-05-20 05:29:00,
2013-05-20 01:34:00,58.8,53.7,30.15,South,180,9.2,9.2,83,0.00,OVC,,0.00,WeatherDisplay:10.37,2013-05-20 05:34:00,
2013-05-20 01:39:00,58.8,53.7,30.15,South,180,9.2,9.2,83,0.00,OVC,,0.00,WeatherDisplay:10.37,2013-05-20 05:39:00,
2013-05-20 01:44:00,58.8,53.7,30.15,South,180,9.2,9.2,83,0.00,OVC,,0.00,WeatherDisplay:10.37,2013-05-20 05:44:00,
2013-05-20 01:49:00,58.8,53.7,30.15,South,180,9.2,9.2,83,0.00,OVC,,0.00,WeatherDisplay:10.37,2013-05-20 05:49:00,
2013-05-20 01:54:00,58.6,53.5,30.15,South,180,9.2,9.2,83,0.00,OVC,,0.00,WeatherDisplay:10.37,2013-05-20 05:54:00,
2013-05-20 01:59:00,58.6,53.5,30.15,South,180,9.2,9.2,83,0.00,OVC,,0.00,WeatherDisplay:10.37,2013-05-20 05:59:00,
2013-05-20 02:04:00,58.6,53.5,30.12,South,180,9.2,9.2,83,0.00,OVC,,0.00,WeatherDisplay:10.37,2013-05-20 06:04:00,
2013-05-20 02:09:00,58.6,53.5,30.12,South,180,9.2,9.2,83,0.00,OVC,,0.00,WeatherDisplay:10.37,2013-05-20 06:09:00,
2013-05-20 02:14:00,58.6,53.5,30.12,South,180,9.2,9.2,83,0.00,OVC,,0.00,WeatherDisplay:10.37,2013-05-20 06:14:00,
2013-05-20 02:19:00,58.6,55.4,30.12,South,180,9.2,9.2,89,0.00,OVC,,0.00,WeatherDisplay:10.37,2013-05-20 06:19:00,
2013-05-20 02:24:00,58.6,55.4,30.12,South,180,9.2,9.2,89,0.00,OVC,,0.00,WeatherDisplay:10.37,2013-05-20 06:24:00,
2013-05-20 02:29:00,58.6,55.4,30.12,South,180,9.2,9.2,89,0.00,OVC,,0.00,WeatherDisplay:10.37,2013-05-20 06:29:00,
2013-05-20 02:34:00,58.5,55.2,30.09,South,180,9.0,9.0,89,0.00,OVC,OVC,0.00,WeatherDisplay:10.37,2013-05-20 06:34:00,
2013-05-20 02:39:00,58.5,55.2,30.09,South,180,9.0,9.0,89,0.00,OVC,OVC,0.00,WeatherDisplay:10.37,2013-05-20 06:39:00,
2013-05-20 02:44:00,58.5,55.2,30.09,South,180,9.0,9.0,89,0.00,OVC,OVC,0.00,WeatherDisplay:10.37,2013-05-20 06:44:00,
2013-05-20 02:49:00,58.5,54.6,30.09,South,180,13.0,13.0,87,0.00,OVC,OVC,0.00,WeatherDisplay:10.37,2013-05-20 06:49:00,
2013-05-20 02:54:00,58.5,54.6,30.09,South,180,13.0,13.0,87,0.00,OVC,OVC,0.00,WeatherDisplay:10.37,2013-05-20 06:54:00,
2013-05-20 02:59:00,58.5,54.6,30.09,South,180,13.0,13.0,87,0.00,OVC,OVC,0.00,WeatherDisplay:10.37,2013-05-20 06:59:00,
2013-05-20 03:04:00,58.5,55.2,30.09,South,180,10.0,13.0,89,0.00,OVC,OVC,0.00,WeatherDisplay:10.37,2013-05-20 07:04:00,
2013-05-20 03:09:00,58.5,55.2,30.09,South,180,10.0,10.0,89,0.00,OVC,OVC,0.00,WeatherDisplay:10.37,2013-05-20 07:09:00,
2013-05-20 03:14:00,58.5,55.2,30.09,South,180,10.0,10.0,89,0.00,OVC,OVC,0.00,WeatherDisplay:10.37,2013-05-20 07:14:00,
2013-05-20 03:19:00,58.5,55.2,30.09,South,180,10.0,10.0,89,0.00,OVC,OVC,0.00,WeatherDisplay:10.37,2013-05-20 07:19:00,
2013-05-20 03:24:00,58.5,55.2,30.09,South,180,10.0,10.0,89,0.00,OVC,OVC,0.00,WeatherDisplay:10.37,2013-05-20 07:24:00,
2013-05-20 03:29:00,58.5,55.2,30.09,South,180,10.0,10.0,89,0.00,OVC,OVC,0.00,WeatherDisplay:10.37,2013-05-20 07:29:00,
2013-05-20 03:34:00,58.5,55.2,30.09,South,180,10.0,10.0,89,0.00,OVC,OVC,0.00,WeatherDisplay:10.37,2013-05-20 07:34:00,
2013-05-20 03:39:00,58.5,55.2,30.09,South,180,10.0,10.0,89,0.00,OVC,OVC,0.00,WeatherDisplay:10.37,2013-05-20 07:39:00,
2013-05-20 03:44:00,58.5,55.2,30.09,South,180,10.0,10.0,89,0.00,OVC,OVC,0.00,WeatherDisplay:10.37,2013-05-20 07:44:00,
2013-05-20 03:49:00,58.5,55.2,30.09,South,180,10.0,10.0,89,0.00,OVC,OVC,0.00,WeatherDisplay:10.37,2013-05-20 07:49:00,
2013-05-20 03:54:00,58.5,55.2,30.09,South,180,10.0,10.0,89,0.00,OVC,OVC,0.00,WeatherDisplay:10.37,2013-05-20 07:54:00,
2013-05-20 03:59:00,58.5,55.2,30.09,South,180,10.0,10.0,89,0.00,OVC,OVC,0.00,WeatherDisplay:10.37,2013-05-20 07:59:00,
2013-05-20 04:04:00,58.5,55.2,30.06,South,180,10.0,10.0,89,0.00,OVC,OVC,0.00,WeatherDisplay:10.37,2013-05-20 08:04:00,
2013-05-20 04:09:00,58.5,55.2,30.06,South,180,10.0,10.0,89,0.00,OVC,OVC,0.00,WeatherDisplay:10.37,2013-05-20 08:09:00,
2013-05-20 04:14:00,58.5,55.2,30.06,South,180,10.0,10.0,89,0.00,OVC,OVC,0.00,WeatherDisplay:10.37,2013-05-20 08:14:00,
2013-05-20 04:19:00,58.5,55.2,30.06,South,180,7.0,10.0,89,0.00,OVC,OVC,0.00,WeatherDisplay:10.37,2013-05-20 08:19:00,
2013-05-20 04:24:00,58.5,55.2,30.06,South,180,7.0,7.0,89,0.00,OVC,OVC,0.00,WeatherDisplay:10.37,2013-05-20 08:24:00,
2013-05-20 04:29:00,58.5,55.2,30.06,South,180,7.0,7.0,89,0.00,OVC,OVC,0.00,WeatherDisplay:10.37,2013-05-20 08:29:00,
2013-05-20 04:34:00,58.5,55.2,30.06,South,180,7.0,7.0,89,0.00,OVC,OVC,0.00,WeatherDisplay:10.37,2013-05-20 08:34:00,
2013-05-20 04:39:00,58.5,55.2,30.06,South,180,7.0,7.0,89,0.00,OVC,OVC,0.00,WeatherDisplay:10.37,2013-05-20 08:39:00,
2013-05-20 04:44:00,58.5,55.2,30.06,South,180,7.0,7.0,89,0.00,OVC,OVC,0.00,WeatherDisplay:10.37,2013-05-20 08:44:00,
2013-05-20 04:49:00,58.5,55.2,30.06,South,180,7.0,7.0,89,0.00,OVC,OVC,0.00,WeatherDisplay:10.37,2013-05-20 08:49:00,
2013-05-20 04:54:00,58.3,55.1,30.06,South,180,7.0,7.0,89,0.00,OVC,OVC,0.00,WeatherDisplay:10.37,2013-05-20 08:54:00,
2013-05-20 04:59:00,58.3,55.1,30.06,South,180,7.0,7.0,89,0.00,OVC,OVC,0.00,WeatherDisplay:10.37,2013-05-20 08:59:00,
2013-05-20 05:04:00,58.3,55.1,30.06,South,180,7.0,7.0,89,0.00,OVC,OVC,0.00,WeatherDisplay:10.37,2013-05-20 09:04:00,
2013-05-20 05:09:00,58.3,55.1,30.06,South,180,7.0,7.0,89,0.00,OVC,OVC,0.00,WeatherDisplay:10.37,2013-05-20 09:09:00,
2013-05-20 05:14:00,58.3,55.1,30.06,South,180,7.0,7.0,89,0.00,OVC,OVC,0.00,WeatherDisplay:10.37,2013-05-20 09:14:00,
2013-05-20 05:19:00,58.3,55.1,30.06,South,170,5.8,5.8,89,0.00,OVC,,0.00,WeatherDisplay:10.37,2013-05-20 09:19:00,
2013-05-20 05:24:00,58.3,55.1,30.06,South,170,5.8,5.8,89,0.00,OVC,,0.00,WeatherDisplay:10.37,2013-05-20 09:24:00,
2013-05-20 05:29:00,58.3,55.1,30.06,South,170,5.8,5.8,89,0.00,OVC,,0.00,WeatherDisplay:10.37,2013-05-20 09:29:00,
2013-05-20 05:34:00,58.3,55.1,30.09,South,170,5.8,5.8,89,0.00,OVC,,0.00,WeatherDisplay:10.37,2013-05-20 09:34:00,
2013-05-20 05:39:00,58.3,55.1,30.09,South,170,5.8,5.8,89,0.00,OVC,,0.00,WeatherDisplay:10.37,2013-05-20 09:39:00,
2013-05-20 05:44:00,58.3,55.1,30.09,South,170,5.8,5.8,89,0.00,OVC,,0.00,WeatherDisplay:10.37,2013-05-20 09:44:00,
2013-05-20 05:49:00,58.3,55.1,30.06,South,170,5.8,5.8,89,0.00,OVC,,0.00,WeatherDisplay:10.37,2013-05-20 09:49:00,
2013-05-20 05:54:00,58.3,55.1,30.06,South,170,5.8,5.8,89,0.00,OVC,,0.00,WeatherDisplay:10.37,2013-05-20 09:54:00,
2013-05-20 05:59:00,58.3,55.1,30.06,South,170,6.0,6.0,89,0.00,OVC,OVC,0.00,WeatherDisplay:10.37,2013-05-20 09:59:00,
2013-05-20 06:04:00,58.3,57.1,30.06,South,180,6.0,6.0,96,0.00,OVC,OVC,0.00,WeatherDisplay:10.37,2013-05-20 10:04:00,
2013-05-20 06:09:00,58.3,57.1,30.06,South,190,6.0,6.0,96,0.00,OVC,OVC,0.00,WeatherDisplay:10.37,2013-05-20 10:09:00,
2013-05-20 06:14:00,58.3,57.1,30.06,South,190,6.0,6.0,96,0.00,OVC,OVC,0.00,WeatherDisplay:10.37,2013-05-20 10:14:00,
2013-05-20 06:19:00,58.3,57.1,30.06,South,190,6.0,6.0,96,0.00,OVC,OVC,0.00,WeatherDisplay:10.37,2013-05-20 10:19:00,
2013-05-20 06:24:00,58.3,57.1,30.06,South,190,6.0,6.0,96,0.00,OVC,OVC,0.00,WeatherDisplay:10.37,2013-05-20 10:24:00,
2013-05-20 06:29:00,58.3,57.1,30.06,South,190,6.0,6.0,96,0.00,OVC,OVC,0.00,WeatherDisplay:10.37,2013-05-20 10:29:00,
2013-05-20 06:34:00,58.3,57.1,30.09,South,190,6.0,6.0,96,0.00,OVC,OVC,0.00,WeatherDisplay:10.37,2013-05-20 10:34:00,
2013-05-20 06:39:00,58.3,57.1,30.09,South,190,6.0,6.0,96,0.00,OVC,OVC,0.00,WeatherDisplay:10.37,2013-05-20 10:39:00,
2013-05-20 06:44:00,58.3,57.1,30.09,South,190,6.0,6.0,96,0.00,OVC,OVC,0.00,WeatherDisplay:10.37,2013-05-20 10:44:00,
2013-05-20 06:49:00,58.3,57.1,30.09,South,190,6.0,6.0,96,0.00,OVC,OVC,0.00,WeatherDisplay:10.37,2013-05-20 10:49:00,
2013-05-20 06:54:00,58.3,57.1,30.09,South,190,6.0,6.0,96,0.00,OVC,OVC,0.00,WeatherDisplay:10.37,2013-05-20 10:54:00,
2013-05-20 06:59:00,58.4,57.2,30.09,South,190,6.0,6.0,96,0.00,OVC,OVC,0.00,WeatherDisplay:10.37,2013-05-20 10:59:00,
2013-05-20 07:04:00,58.5,56.4,30.09,South,186,3.0,6.0,93,0.00,OVC,OVC,0.00,WeatherDisplay:10.37,2013-05-20 11:04:00,
2013-05-20 07:09:00,58.5,56.4,30.09,South,180,3.0,3.0,93,0.00,OVC,OVC,0.00,WeatherDisplay:10.37,2013-05-20 11:09:00,
2013-05-20 07:14:00,58.5,56.4,30.09,South,180,3.0,3.0,93,0.00,OVC,OVC,0.00,WeatherDisplay:10.37,2013-05-20 11:14:00,
2013-05-20 07:19:00,58.5,56.4,30.09,South,180,3.0,3.0,93,0.00,OVC,OVC,0.00,WeatherDisplay:10.37,2013-05-20 11:19:00,
2013-05-20 07:24:00,58.5,56.4,30.09,South,180,3.0,3.0,93,0.00,OVC,OVC,0.00,WeatherDisplay:10.37,2013-05-20 11:24:00,
2013-05-20 07:29:00,58.5,56.4,30.09,South,180,3.0,3.0,93,0.00,OVC,OVC,0.00,WeatherDisplay:10.37,2013-05-20 11:29:00,
2013-05-20 07:34:00,58.5,56.4,30.09,South,180,3.0,3.0,93,0.00,OVC,OVC,0.00,WeatherDisplay:10.37,2013-05-20 11:34:00,
2013-05-20 07:39:00,58.6,56.6,30.09,South,180,3.0,3.0,93,0.00,OVC,OVC,0.00,WeatherDisplay:10.37,2013-05-20 11:39:00,
2013-05-20 07:44:00,58.6,56.6,30.09,South,180,3.0,3.0,93,0.00,OVC,OVC,0.00,WeatherDisplay:10.37,2013-05-20 11:44:00,
2013-05-20 07:49:00,58.8,56.8,30.09,South,180,3.0,3.0,93,0.00,OVC,OVC,0.00,WeatherDisplay:10.37,2013-05-20 11:49:00,
2013-05-20 07:54:00,58.8,56.8,30.09,South,180,3.0,3.0,93,0.00,OVC,OVC,0.00,WeatherDisplay:10.37,2013-05-20 11:54:00,
2013-05-20 07:59:00,58.8,56.8,30.09,South,180,3.0,3.0,93,0.00,OVC,OVC,0.00,WeatherDisplay:10.37,2013-05-20 11:59:00,
2013-05-20 08:04:00,58.8,55.9,30.09,South,174,5.0,5.0,90,0.00,OVC,OVC,0.00,WeatherDisplay:10.37,2013-05-20 12:04:00,
2013-05-20 08:09:00,59.0,56.1,30.09,South,170,5.0,5.0,90,0.00,OVC,OVC,0.00,WeatherDisplay:10.37,2013-05-20 12:09:00,
2013-05-20 08:14:00,59.1,56.2,30.09,South,170,5.0,5.0,90,0.00,OVC,OVC,0.00,WeatherDisplay:10.37,2013-05-20 12:14:00,
2013-05-20 08:19:00,59.2,56.2,30.09,South,170,5.0,5.0,90,0.00,OVC,OVC,0.00,WeatherDisplay:10.37,2013-05-20 12:19:00,
2013-05-20 08:24:00,59.2,56.3,30.09,South,170,5.0,5.0,90,0.00,OVC,OVC,0.00,WeatherDisplay:10.37,2013-05-20 12:24:00,
2013-05-20 08:29:00,59.4,56.4,30.09,South,170,5.0,5.0,90,0.00,OVC,OVC,0.00,WeatherDisplay:10.37,2013-05-20 12:29:00,
2013-05-20 08:34:00,59.5,56.6,30.09,South,170,5.0,5.0,90,0.00,OVC,OVC,0.00,WeatherDisplay:10.37,2013-05-20 12:34:00,
2013-05-20 08:39:00,59.5,56.6,30.09,South,170,5.0,5.0,90,0.00,OVC,OVC,0.00,WeatherDisplay:10.37,2013-05-20 12:39:00,
2013-05-20 08:44:00,59.6,56.6,30.09,South,170,5.0,5.0,90,0.00,OVC,OVC,0.00,WeatherDisplay:10.37,2013-05-20 12:44:00,
2013-05-20 08:49:00,59.7,56.8,30.09,South,170,4.6,4.6,90,0.00,OVC,,0.00,WeatherDisplay:10.37,2013-05-20 12:49:00,
2013-05-20 08:54:00,59.7,56.8,30.09,South,170,4.6,4.6,90,0.00,OVC,,0.00,WeatherDisplay:10.37,2013-05-20 12:54:00,
2013-05-20 08:59:00,59.9,57.0,30.09,South,170,4.6,4.6,90,0.00,OVC,,0.00,WeatherDisplay:10.37,2013-05-20 12:59:00,
2013-05-20 09:04:00,59.9,57.0,30.09,South,170,5.0,5.0,90,0.00,OVC,OVC,0.00,WeatherDisplay:10.37,2013-05-20 13:04:00,
2013-05-20 09:09:00,60.1,57.1,30.09,South,170,4.6,4.6,90,0.00,OVC,,0.00,WeatherDisplay:10.37,2013-05-20 13:09:00,
2013-05-20 09:14:00,60.1,57.1,30.09,South,170,5.0,5.0,90,0.00,OVC,OVC,0.00,WeatherDisplay:10.37,2013-05-20 13:14:00,
2013-05-20 09:19:00,60.3,57.0,30.09,South,170,3.5,3.5,89,0.00,OVC,,0.00,WeatherDisplay:10.37,2013-05-20 13:19:00,
2013-05-20 09:24:00,60.3,57.0,30.09,South,170,3.5,3.5,89,0.00,OVC,,0.00,WeatherDisplay:10.37,2013-05-20 13:24:00,
2013-05-20 09:29:00,60.4,57.2,30.09,South,170,3.0,3.0,89,0.00,OVC,OVC,0.00,WeatherDisplay:10.37,2013-05-20 13:29:00,
2013-05-20 09:34:00,60.4,57.2,30.09,South,170,3.0,3.0,89,0.00,OVC,OVC,0.00,WeatherDisplay:10.37,2013-05-20 13:34:00,
2013-05-20 09:39:00,60.6,57.4,30.09,South,170,3.0,3.0,89,0.00,OVC,OVC,0.00,WeatherDisplay:10.37,2013-05-20 13:39:00,
2013-05-20 09:44:00,60.6,57.4,30.09,South,170,3.0,3.0,89,0.00,OVC,OVC,0.00,WeatherDisplay:10.37,2013-05-20 13:44:00,
2013-05-20 09:49:00,60.6,57.4,30.09,South,170,3.0,3.0,89,0.00,OVC,OVC,0.00,WeatherDisplay:10.37,2013-05-20 13:49:00,
2013-05-20 09:54:00,61.0,57.7,30.09,South,170,3.0,3.0,89,0.00,OVC,OVC,0.00,WeatherDisplay:10.37,2013-05-20 13:54:00,
2013-05-20 09:59:00,61.3,58.0,30.09,South,170,3.0,3.0,89,0.00,OVC,OVC,0.00,WeatherDisplay:10.37,2013-05-20 13:59:00,
2013-05-20 10:04:00,61.5,56.3,30.09,South,170,0.0,3.0,83,0.00,OVC,OVC,0.00,WeatherDisplay:10.37,2013-05-20 14:04:00,
2013-05-20 10:09:00,61.7,56.5,30.09,South,170,0.0,0.0,83,0.00,OVC,OVC,0.00,WeatherDisplay:10.37,2013-05-20 14:09:00,
2013-05-20 10:14:00,61.7,56.5,30.09,South,170,0.0,0.0,83,0.00,OVC,OVC,0.00,WeatherDisplay:10.37,2013-05-20 14:14:00,
2013-05-20 10:19:00,61.7,56.5,30.09,South,170,0.0,0.0,83,0.00,OVC,OVC,0.00,WeatherDisplay:10.37,2013-05-20 14:19:00,
2013-05-20 10:24:00,61.9,56.7,30.09,South,170,0.0,0.0,83,0.00,OVC,OVC,0.00,WeatherDisplay:10.37,2013-05-20 14:24:00,
2013-05-20 10:29:00,61.9,56.7,30.09,South,170,0.0,0.0,83,0.00,OVC,OVC,0.00,WeatherDisplay:10.37,2013-05-20 14:29:00,
2013-05-20 10:34:00,62.4,57.1,30.06,South,170,0.0,0.0,83,0.00,OVC,OVC,0.00,WeatherDisplay:10.37,2013-05-20 14:34:00,
2013-05-20 10:39:00,62.4,57.2,30.06,South,170,0.0,0.0,83,0.00,OVC,OVC,0.00,WeatherDisplay:10.37,2013-05-20 14:39:00,
2013-05-20 10:44:00,63.3,58.0,30.06,South,170,0.0,0.0,83,0.00,OVC,OVC,0.00,WeatherDisplay:10.37,2013-05-20 14:44:00,
2013-05-20 10:49:00,63.6,58.4,30.06,South,170,0.0,0.0,83,0.00,OVC,OVC,0.00,WeatherDisplay:10.37,2013-05-20 14:49:00,
2013-05-20 10:54:00,64.0,58.8,30.06,South,170,0.0,0.0,83,0.00,OVC,OVC,0.00,WeatherDisplay:10.37,2013-05-20 14:54:00,
2013-05-20 10:59:00,64.0,58.8,30.06,South,170,0.0,0.0,83,0.00,OVC,OVC,0.00,WeatherDisplay:10.37,2013-05-20 14:59:00,
2013-05-20 11:04:00,64.0,58.8,30.06,South,170,0.0,0.0,83,0.00,OVC,OVC,0.00,WeatherDisplay:10.37,2013-05-20 15:04:00,
2013-05-20 11:09:00,65.3,60.0,30.06,South,170,0.0,0.0,83,0.00,OVC,OVC,0.00,WeatherDisplay:10.37,2013-05-20 15:09:00,
2013-05-20 11:14:00,65.7,60.4,30.06,South,170,0.0,0.0,83,0.00,OVC,OVC,0.00,WeatherDisplay:10.37,2013-05-20 15:14:00,
2013-05-20 11:19:00,65.8,58.4,30.06,South,170,0.0,0.0,77,0.00,BKN,BKN,0.00,WeatherDisplay:10.37,2013-05-20 15:19:00,
2013-05-20 11:24:00,65.8,58.4,30.06,South,170,0.0,0.0,77,0.00,BKN,BKN,0.00,WeatherDisplay:10.37,2013-05-20 15:24:00,
2013-05-20 11:29:00,65.8,58.4,30.06,South,170,0.0,0.0,77,0.00,BKN,BKN,0.00,WeatherDisplay:10.37,2013-05-20 15:29:00,
2013-05-20 11:34:00,65.8,58.4,30.06,South,170,0.0,0.0,77,0.00,BKN,BKN,0.00,WeatherDisplay:10.37,2013-05-20 15:34:00,
2013-05-20 11:39:00,66.1,58.7,30.06,South,170,0.0,0.0,77,0.00,BKN,BKN,0.00,WeatherDisplay:10.37,2013-05-20 15:39:00,
2013-05-20 11:44:00,66.4,58.9,30.06,South,170,0.0,0.0,77,0.00,BKN,,0.00,WeatherDisplay:10.37,2013-05-20 15:44:00,
2013-05-20 11:49:00,66.4,58.9,30.03,South,170,0.0,0.0,77,0.00,BKN,,0.00,WeatherDisplay:10.37,2013-05-20 15:49:00,
2013-05-20 11:54:00,66.4,58.9,30.03,South,170,0.0,0.0,77,0.00,BKN,,0.00,WeatherDisplay:10.37,2013-05-20 15:54:00,
2013-05-20 11:59:00,66.6,59.1,30.03,South,170,0.0,0.0,77,0.00,BKN,,0.00,WeatherDisplay:10.37,2013-05-20 15:59:00,
2013-05-20 12:04:00,66.6,56.5,30.03,South,170,0.0,0.0,70,0.00,OVC,,0.00,WeatherDisplay:10.37,2013-05-20 16:04:00,
2013-05-20 12:09:00,66.7,56.6,30.03,South,170,0.0,0.0,70,0.00,OVC,,0.00,WeatherDisplay:10.37,2013-05-20 16:09:00,
2013-05-20 12:14:00,67.1,57.0,30.03,South,170,0.0,0.0,70,0.00,OVC,,0.00,WeatherDisplay:10.37,2013-05-20 16:14:00,
2013-05-20 12:19:00,67.1,57.0,30.03,South,170,0.0,0.0,70,0.00,OVC,,0.00,WeatherDisplay:10.37,2013-05-20 16:19:00,
2013-05-20 12:24:00,67.1,57.0,30.03,South,170,0.0,0.0,70,0.00,OVC,,0.00,WeatherDisplay:10.37,2013-05-20 16:24:00,
2013-05-20 12:29:00,67.3,57.2,30.03,South,170,0.0,0.0,70,0.00,OVC,,0.00,WeatherDisplay:10.37,2013-05-20 16:29:00,
2013-05-20 12:34:00,67.3,57.2,30.03,South,170,0.0,0.0,70,0.00,OVC,,0.00,WeatherDisplay:10.37,2013-05-20 16:34:00,
2013-05-20 12:39:00,67.5,57.3,30.03,South,170,0.0,0.0,70,0.00,OVC,,0.00,WeatherDisplay:10.37,2013-05-20 16:39:00,
2013-05-20 12:44:00,67.5,57.3,30.03,South,170,0.0,0.0,70,0.00,OVC,,0.00,WeatherDisplay:10.37,2013-05-20 16:44:00,
2013-05-20 12:49:00,68.2,57.2,30.00,South,170,0.0,0.0,68,0.00,BKN,,0.00,WeatherDisplay:10.37,2013-05-20 16:49:00,
2013-05-20 12:54:00,68.4,57.4,30.00,South,170,0.0,0.0,68,0.00,BKN,,0.00,WeatherDisplay:10.37,2013-05-20 16:54:00,
2013-05-20 12:59:00,68.2,57.2,30.00,South,170,0.0,0.0,68,0.00,BKN,,0.00,WeatherDisplay:10.37,2013-05-20 16:59:00,
2013-05-20 13:04:00,68.7,57.7,30.00,East,90,3.5,3.5,68,0.00,BKN,,0.00,WeatherDisplay:10.37,2013-05-20 17:04:00,
2013-05-20 13:09:00,68.7,57.7,30.00,East,90,3.5,3.5,68,0.00,BKN,,0.00,WeatherDisplay:10.37,2013-05-20 17:09:00,
2013-05-20 13:14:00,68.9,57.9,30.00,East,90,3.5,3.5,68,0.00,BKN,,0.00,WeatherDisplay:10.37,2013-05-20 17:14:00,
2013-05-20 13:19:00,69.1,58.1,30.00,East,90,3.5,3.5,68,0.00,BKN,,0.00,WeatherDisplay:10.37,2013-05-20 17:19:00,
2013-05-20 13:24:00,69.3,58.2,30.00,East,90,3.5,3.5,68,0.00,BKN,,0.00,WeatherDisplay:10.37,2013-05-20 17:24:00,
2013-05-20 13:29:00,69.3,58.2,30.00,East,90,3.5,3.5,68,0.00,BKN,,0.00,WeatherDisplay:10.37,2013-05-20 17:29:00,
2013-05-20 13:34:00,69.4,58.4,30.00,East,90,3.5,3.5,68,0.00,BKN,,0.00,WeatherDisplay:10.37,2013-05-20 17:34:00,
2013-05-20 13:39:00,69.4,58.4,30.00,East,90,3.5,3.5,68,0.00,BKN,,0.00,WeatherDisplay:10.37,2013-05-20 17:39:00,
2013-05-20 13:44:00,69.8,58.8,30.00,East,90,3.5,3.5,68,0.00,BKN,,0.00,WeatherDisplay:10.37,2013-05-20 17:44:00,
2013-05-20 13:49:00,70.0,58.9,30.00,East,90,3.5,3.5,68,0.00,BKN,,0.00,WeatherDisplay:10.37,2013-05-20 17:49:00,
2013-05-20 13:54:00,70.2,59.1,30.00,East,90,3.5,3.5,68,0.00,BKN,,0.00,WeatherDisplay:10.37,2013-05-20 17:54:00,
2013-05-20 13:59:00,70.3,59.3,30.00,East,90,3.5,3.5,68,0.00,BKN,,0.00,WeatherDisplay:10.37,2013-05-20 17:59:00,
2013-05-20 14:04:00,70.5,56.9,30.00,WNW,290,8.1,8.1,62,0.00,BKN,,0.00,WeatherDisplay:10.37,2013-05-20 18:04:00,
2013-05-20 14:09:00,70.5,56.9,30.00,WNW,290,8.1,8.1,62,0.00,BKN,,0.00,WeatherDisplay:10.37,2013-05-20 18:09:00,
2013-05-20 14:14:00,70.7,57.0,30.00,WNW,290,8.1,8.1,62,0.00,BKN,,0.00,WeatherDisplay:10.37,2013-05-20 18:14:00,
2013-05-20 14:19:00,70.9,57.2,30.00,WNW,290,8.1,8.1,62,0.00,BKN,,0.00,WeatherDisplay:10.37,2013-05-20 18:19:00,
2013-05-20 14:24:00,71.1,57.4,30.00,WNW,290,8.1,8.1,62,0.00,BKN,,0.00,WeatherDisplay:10.37,2013-05-20 18:24:00,
2013-05-20 14:29:00,71.2,57.5,30.00,WNW,290,8.1,8.1,62,0.00,BKN,,0.00,WeatherDisplay:10.37,2013-05-20 18:29:00,
2013-05-20 14:34:00,71.8,58.1,30.00,WNW,290,8.1,8.1,62,0.00,BKN,,0.00,WeatherDisplay:10.37,2013-05-20 18:34:00,
2013-05-20 14:39:00,71.6,57.9,30.00,WNW,290,8.1,8.1,62,0.00,BKN,,0.00,WeatherDisplay:10.37,2013-05-20 18:39:00,
2013-05-20 14:44:00,72.0,58.2,30.00,WNW,290,8.1,8.1,62,0.00,BKN,,0.00,WeatherDisplay:10.37,2013-05-20 18:44:00,
2013-05-20 14:49:00,72.0,58.2,29.98,WNW,290,8.1,8.1,62,0.00,BKN,,0.00,WeatherDisplay:10.37,2013-05-20 18:49:00,
2013-05-20 14:54:00,72.0,58.2,29.98,WNW,290,8.1,8.1,62,0.00,BKN,,0.00,WeatherDisplay:10.37,2013-05-20 18:54:00,
2013-05-20 14:59:00,71.8,58.1,29.98,WNW,290,8.1,8.1,62,0.00,BKN,,0.00,WeatherDisplay:10.37,2013-05-20 18:59:00,
2013-05-20 15:04:00,71.8,58.1,29.98,WNW,290,8.1,8.1,62,0.00,BKN,,0.00,WeatherDisplay:10.37,2013-05-20 19:04:00,
2013-05-20 15:09:00,71.8,58.1,29.98,WNW,290,8.1,8.1,62,0.00,BKN,,0.00,WeatherDisplay:10.37,2013-05-20 19:09:00,
2013-05-20 15:14:00,71.6,57.9,29.98,WNW,290,8.1,8.1,62,0.00,BKN,,0.00,WeatherDisplay:10.37,2013-05-20 19:14:00,
2013-05-20 15:19:00,71.8,58.1,29.98,NE,40,5.8,5.8,62,0.00,BKN,,0.00,WeatherDisplay:10.37,2013-05-20 19:19:00,
2013-05-20 15:24:00,71.8,58.1,29.98,NE,40,5.8,5.8,62,0.00,BKN,,0.00,WeatherDisplay:10.37,2013-05-20 19:24:00,
2013-05-20 15:29:00,72.1,58.4,29.98,NE,40,5.8,5.8,62,0.00,BKN,,0.00,WeatherDisplay:10.37,2013-05-20 19:29:00,
2013-05-20 15:34:00,72.5,58.7,29.95,NE,40,5.8,5.8,62,0.00,BKN,,0.00,WeatherDisplay:10.37,2013-05-20 19:34:00,
2013-05-20 15:39:00,72.3,58.6,29.95,NE,40,5.8,5.8,62,0.00,BKN,,0.00,WeatherDisplay:10.37,2013-05-20 19:39:00,
2013-05-20 15:44:00,72.0,58.2,29.95,NE,40,5.8,5.8,62,0.00,BKN,,0.00,WeatherDisplay:10.37,2013-05-20 19:44:00,
2013-05-20 15:49:00,72.1,58.4,29.95,NE,40,5.8,5.8,62,0.00,BKN,,0.00,WeatherDisplay:10.37,2013-05-20 19:49:00,
2013-05-20 15:54:00,72.0,58.2,29.95,NE,40,5.8,5.8,62,0.00,BKN,,0.00,WeatherDisplay:10.37,2013-05-20 19:54:00,
2013-05-20 15:59:00,72.1,58.4,29.95,NE,40,5.8,5.8,62,0.00,BKN,,0.00,WeatherDisplay:10.37,2013-05-20 19:59:00,
2013-05-20 16:04:00,72.1,58.4,29.95,NE,40,5.8,5.8,62,0.00,BKN,,0.00,WeatherDisplay:10.37,2013-05-20 20:04:00,
2013-05-20 16:09:00,72.1,58.4,29.95,NE,40,5.8,5.8,62,0.00,BKN,,0.00,WeatherDisplay:10.37,2013-05-20 20:09:00,
2013-05-20 16:14:00,72.3,58.6,29.95,NE,40,5.8,5.8,62,0.00,BKN,,0.00,WeatherDisplay:10.37,2013-05-20 20:14:00,
2013-05-20 16:19:00,72.5,54.9,29.95,NE,40,0.0,0.0,54,0.00,BKN,,0.00,WeatherDisplay:10.37,2013-05-20 20:19:00,
2013-05-20 16:24:00,72.9,55.2,29.95,NE,40,0.0,0.0,54,0.00,BKN,,0.00,WeatherDisplay:10.37,2013-05-20 20:24:00,
2013-05-20 16:29:00,72.9,55.2,29.95,NE,40,0.0,0.0,54,0.00,BKN,,0.00,WeatherDisplay:10.37,2013-05-20 20:29:00,
2013-05-20 16:34:00,72.9,55.2,29.95,NE,40,0.0,0.0,54,0.00,BKN,,0.00,WeatherDisplay:10.37,2013-05-20 20:34:00,
2013-05-20 16:39:00,72.9,55.2,29.95,NE,40,0.0,0.0,54,0.00,BKN,,0.00,WeatherDisplay:10.37,2013-05-20 20:39:00,
2013-05-20 16:44:00,72.9,55.2,29.95,NE,40,0.0,0.0,54,0.00,BKN,,0.00,WeatherDisplay:10.37,2013-05-20 20:44:00,
2013-05-20 16:49:00,72.9,55.2,29.95,NE,40,0.0,0.0,54,0.00,BKN,,0.00,WeatherDisplay:10.37,2013-05-20 20:49:00,
2013-05-20 16:55:00,72.9,55.2,29.95,NE,40,0.0,0.0,54,0.00,BKN,,0.00,WeatherDisplay:10.37,2013-05-20 20:55:00,
2013-05-20 17:00:00,72.9,55.2,29.95,NE,40,0.0,0.0,54,0.00,BKN,,0.00,WeatherDisplay:10.37,2013-05-20 21:00:00,
2013-05-20 17:05:00,72.9,55.2,29.95,NE,40,0.0,0.0,54,0.00,BKN,,0.00,WeatherDisplay:10.37,2013-05-20 21:05:00,
2013-05-20 17:10:00,72.9,55.2,29.95,NE,40,0.0,0.0,54,0.00,BKN,,0.00,WeatherDisplay:10.37,2013-05-20 21:10:00,
2013-05-20 17:15:00,72.9,55.2,29.95,NE,40,0.0,0.0,54,0.00,BKN,,0.00,WeatherDisplay:10.37,2013-05-20 21:15:00,
2013-05-20 17:20:00,72.9,56.2,29.95,NE,40,0.0,0.0,56,0.00,BKN,,0.00,WeatherDisplay:10.37,2013-05-20 21:20:00,
2013-05-20 17:25:00,72.9,56.2,29.95,NE,40,0.0,0.0,56,0.00,BKN,,0.00,WeatherDisplay:10.37,2013-05-20 21:25:00,
2013-05-20 17:30:00,72.5,55.9,29.95,NE,40,0.0,0.0,56,0.00,BKN,,0.00,WeatherDisplay:10.37,2013-05-20 21:30:00,
2013-05-20 17:35:00,72.7,56.1,29.95,NE,40,0.0,0.0,56,0.00,BKN,,0.00,WeatherDisplay:10.37,2013-05-20 21:35:00,
2013-05-20 17:40:00,72.7,56.1,29.95,NE,40,0.0,0.0,56,0.00,BKN,,0.00,WeatherDisplay:10.37,2013-05-20 21:40:00,
2013-05-20 17:45:00,72.7,56.1,29.95,NE,40,0.0,0.0,56,0.00,BKN,,0.00,WeatherDisplay:10.37,2013-05-20 21:45:00,
2013-05-20 17:50:00,72.7,56.1,29.95,NE,40,0.0,0.0,56,0.00,BKN,,0.00,WeatherDisplay:10.37,2013-05-20 21:50:00,
2013-05-20 17:55:00,72.7,56.1,29.95,NE,40,0.0,0.0,56,0.00,BKN,,0.00,WeatherDisplay:10.37,2013-05-20 21:55:00,
2013-05-20 18:00:00,72.7,56.1,29.95,NE,40,0.0,0.0,56,0.00,BKN,,0.00,WeatherDisplay:10.37,2013-05-20 22:00:00,
2013-05-20 18:05:00,72.7,56.1,29.95,NE,40,0.0,0.0,56,0.00,BKN,,0.00,WeatherDisplay:10.37,2013-05-20 22:05:00,
2013-05-20 18:10:00,72.7,56.1,29.95,NE,40,0.0,0.0,56,0.00,BKN,,0.00,WeatherDisplay:10.37,2013-05-20 22:10:00,
2013-05-20 18:15:00,72.7,56.1,29.95,NE,40,0.0,0.0,56,0.00,BKN,,0.00,WeatherDisplay:10.37,2013-05-20 22:15:00,
2013-05-20 18:20:00,72.7,54.0,29.95,NNW,330,3.5,3.5,52,0.00,BKN,,0.00,WeatherDisplay:10.37,2013-05-20 22:20:00,
2013-05-20 18:25:00,72.7,54.0,29.95,NNW,330,3.5,3.5,52,0.00,BKN,,0.00,WeatherDisplay:10.37,2013-05-20 22:25:00,
2013-05-20 18:30:00,72.7,54.0,29.95,NNW,330,3.5,3.5,52,0.00,BKN,,0.00,WeatherDisplay:10.37,2013-05-20 22:30:00,
2013-05-20 18:35:00,72.7,54.0,29.95,NNW,330,3.5,3.5,52,0.00,BKN,,0.00,WeatherDisplay:10.37,2013-05-20 22:35:00,
2013-05-20 18:40:00,72.7,54.0,29.95,NNW,330,3.5,3.5,52,0.00,BKN,,0.00,WeatherDisplay:10.37,2013-05-20 22:40:00,
2013-05-20 18:45:00,72.7,54.0,29.95,NNW,330,3.5,3.5,52,0.00,BKN,,0.00,WeatherDisplay:10.37,2013-05-20 22:45:00,
2013-05-20 18:50:00,72.7,54.0,29.95,NNW,330,3.5,3.5,52,0.00,BKN,,0.00,WeatherDisplay:10.37,2013-05-20 22:50:00,
2013-05-20 18:55:00,72.7,54.0,29.95,NNW,330,3.5,3.5,52,0.00,BKN,,0.00,WeatherDisplay:10.37,2013-05-20 22:55:00,
2013-05-20 19:00:00,72.7,54.0,29.95,NNW,330,3.5,3.5,52,0.00,BKN,,0.00,WeatherDisplay:10.37,2013-05-20 23:00:00,
2013-05-20 19:05:00,72.7,54.0,29.92,NNW,330,3.5,3.5,52,0.00,BKN,,0.00,WeatherDisplay:10.37,2013-05-20 23:05:00,
2013-05-20 19:10:00,72.7,54.0,29.92,NNW,330,3.5,3.5,52,0.00,BKN,,0.00,WeatherDisplay:10.37,2013-05-20 23:10:00,
2013-05-20 19:15:00,71.6,53.0,29.92,NNW,330,3.5,3.5,52,0.00,BKN,,0.00,WeatherDisplay:10.37,2013-05-20 23:15:00,
2013-05-20 19:20:00,71.6,56.0,29.92,NNW,330,0.0,0.0,58,0.00,BKN,,0.00,WeatherDisplay:10.37,2013-05-20 23:20:00,
2013-05-20 19:25:00,71.6,56.0,29.92,NNW,330,0.0,0.0,58,0.00,BKN,,0.00,WeatherDisplay:10.37,2013-05-20 23:25:00,
2013-05-20 19:30:00,71.6,56.0,29.92,NNW,330,0.0,0.0,58,0.00,BKN,,0.00,WeatherDisplay:10.37,2013-05-20 23:30:00,
2013-05-20 19:35:00,71.6,56.0,29.92,NNW,330,0.0,0.0,58,0.00,BKN,,0.00,WeatherDisplay:10.37,2013-05-20 23:35:00,
2013-05-20 19:40:00,71.6,56.0,29.92,NNW,330,0.0,0.0,58,0.00,BKN,,0.00,WeatherDisplay:10.37,2013-05-20 23:40:00,
2013-05-20 19:45:00,71.6,56.0,29.92,NNW,330,0.0,0.0,58,0.00,BKN,,0.00,WeatherDisplay:10.37,2013-05-20 23:45:00,
2013-05-20 19:50:00,71.6,56.0,29.92,NNW,330,0.0,0.0,58,0.00,BKN,,0.00,WeatherDisplay:10.37,2013-05-20 23:50:00,
2013-05-20 19:55:00,71.6,56.0,29.92,NNW,330,0.0,0.0,58,0.00,BKN,,0.00,WeatherDisplay:10.37,2013-05-20 23:55:00,
2013-05-20 20:00:00,71.6,56.0,29.92,NNW,330,0.0,0.0,58,0.00,BKN,,0.00,WeatherDisplay:10.37,2013-05-21 00:00:00,
2013-05-20 20:05:00,71.6,56.0,29.95,NNW,330,0.0,0.0,58,0.00,BKN,,0.00,WeatherDisplay:10.37,2013-05-21 00:05:00,
2013-05-20 20:10:00,71.6,56.0,29.95,NNW,330,0.0,0.0,58,0.00,BKN,,0.00,WeatherDisplay:10.37,2013-05-21 00:10:00,
2013-05-20 20:15:00,71.6,56.0,29.95,NNW,330,0.0,0.0,58,0.00,BKN,,0.00,WeatherDisplay:10.37,2013-05-21 00:15:00,
2013-05-20 20:20:00,71.6,56.5,29.92,SE,130,3.5,3.5,59,0.00,BKN,,0.00,WeatherDisplay:10.37,2013-05-21 00:20:00,
2013-05-20 20:25:00,71.6,56.5,29.92,SE,130,3.5,3.5,59,0.00,BKN,,0.00,WeatherDisplay:10.37,2013-05-21 00:25:00,
2013-05-20 20:30:00,71.6,56.5,29.92,SE,130,3.5,3.5,59,0.00,BKN,,0.00,WeatherDisplay:10.37,2013-05-21 00:30:00,
2013-05-20 20:35:00,71.6,56.5,29.92,SE,130,3.5,3.5,59,0.00,BKN,,0.00,WeatherDisplay:10.37,2013-05-21 00:35:00,
2013-05-20 20:40:00,71.6,56.5,29.92,SE,130,3.5,3.5,59,0.00,BKN,,0.00,WeatherDisplay:10.37,2013-05-21 00:40:00,
2013-05-20 20:45:00,71.6,56.5,29.92,SE,130,3.5,3.5,59,0.00,BKN,,0.00,WeatherDisplay:10.37,2013-05-21 00:45:00,
2013-05-20 20:50:00,69.3,54.3,29.92,SE,130,3.5,3.5,59,0.00,BKN,,0.00,WeatherDisplay:10.37,2013-05-21 00:50:00,
2013-05-20 20:55:00,69.3,54.3,29.92,SE,130,3.5,3.5,59,0.00,BKN,,0.00,WeatherDisplay:10.37,2013-05-21 00:55:00,
2013-05-20 21:00:00,69.1,54.1,29.92,SE,130,3.5,3.5,59,0.00,BKN,,0.00,WeatherDisplay:10.37,2013-05-21 01:00:00,
2013-05-20 21:05:00,68.9,59.9,29.95,SE,130,0.0,0.0,73,0.00,SCT,,0.00,WeatherDisplay:10.37,2013-05-21 01:05:00,
2013-05-20 21:10:00,68.9,59.9,29.95,SE,130,0.0,0.0,73,0.00,SCT,,0.00,WeatherDisplay:10.37,2013-05-21 01:10:00,
2013-05-20 21:15:00,68.5,59.5,29.95,SE,130,0.0,0.0,73,0.00,SCT,,0.00,WeatherDisplay:10.37,2013-05-21 01:15:00,
2013-05-20 21:20:00,68.4,59.4,29.95,SE,130,0.0,0.0,73,0.00,SCT,,0.00,WeatherDisplay:10.37,2013-05-21 01:20:00,
2013-05-20 21:25:00,68.4,59.4,29.95,SE,130,0.0,0.0,73,0.00,SCT,,0.00,WeatherDisplay:10.37,2013-05-21 01:25:00,
2013-05-20 21:30:00,68.2,59.2,29.95,SE,130,0.0,0.0,73,0.00,SCT,,0.00,WeatherDisplay:10.37,2013-05-21 01:30:00,
2013-05-20 21:35:00,68.0,59.0,29.95,SE,130,0.0,0.0,73,0.00,SCT,,0.00,WeatherDisplay:10.37,2013-05-21 01:35:00,
2013-05-20 21:40:00,68.0,59.0,29.95,SE,130,0.0,0.0,73,0.00,SCT,,0.00,WeatherDisplay:10.37,2013-05-21 01:40:00,
2013-05-20 21:45:00,67.8,58.8,29.95,SE,130,0.0,0.0,73,0.00,SCT,,0.00,WeatherDisplay:10.37,2013-05-21 01:45:00,
2013-05-20 21:50:00,67.8,58.8,29.95,SE,130,0.0,0.0,73,0.00,SCT,,0.00,WeatherDisplay:10.37,2013-05-21 01:50:00,
2013-05-20 21:55:00,67.6,58.7,29.95,SE,130,0.0,0.0,73,0.00,SCT,,0.00,WeatherDisplay:10.37,2013-05-21 01:55:00,
2013-05-20 22:00:00,67.6,61.6,29.95,SE,130,0.0,0.0,81,0.00,SCT,,0.00,WeatherDisplay:10.37,2013-05-21 02:00:00,
2013-05-20 22:05:00,67.6,61.6,29.95,SE,130,0.0,0.0,81,0.00,SCT,,0.00,WeatherDisplay:10.37,2013-05-21 02:05:00,
2013-05-20 22:10:00,67.6,61.6,29.95,SE,130,0.0,0.0,81,0.00,SCT,,0.00,WeatherDisplay:10.37,2013-05-21 02:10:00,
2013-05-20 22:15:00,67.6,61.6,29.95,SE,130,0.0,0.0,81,0.00,SCT,,0.00,WeatherDisplay:10.37,2013-05-21 02:15:00,
2013-05-20 22:20:00,67.6,61.6,29.95,SE,130,0.0,0.0,81,0.00,SCT,,0.00,WeatherDisplay:10.37,2013-05-21 02:20:00,
2013-05-20 22:25:00,67.6,61.6,29.95,SE,130,0.0,0.0,81,0.00,SCT,,0.00,WeatherDisplay:10.37,2013-05-21 02:25:00,
2013-05-20 22:30:00,67.6,61.6,29.95,SE,130,0.0,0.0,81,0.00,SCT,,0.00,WeatherDisplay:10.37,2013-05-21 02:30:00,
2013-05-20 22:35:00,67.6,61.6,29.95,SE,130,0.0,0.0,81,0.00,SCT,,0.00,WeatherDisplay:10.37,2013-05-21 02:35:00,
2013-05-20 22:40:00,67.6,61.6,29.95,SE,130,0.0,0.0,81,0.00,SCT,,0.00,WeatherDisplay:10.37,2013-05-21 02:40:00,
2013-05-20 22:45:00,67.6,61.6,29.95,SE,130,0.0,0.0,81,0.00,SCT,,0.00,WeatherDisplay:10.37,2013-05-21 02:45:00,
2013-05-20 22:50:00,67.6,61.6,29.95,SE,130,0.0,0.0,81,0.00,SCT,,0.00,WeatherDisplay:10.37,2013-05-21 02:50:00,
2013-05-20 22:55:00,67.6,61.6,29.95,SE,130,0.0,0.0,81,0.00,SCT,,0.00,WeatherDisplay:10.37,2013-05-21 02:55:00,
2013-05-20 23:00:00,67.6,63.6,29.95,North,360,4.6,0.0,87,0.00,SCT,,0.00,WeatherDisplay:10.37,2013-05-21 03:00:00,
2013-05-20 23:05:00,67.6,63.6,29.95,North,360,4.6,4.6,87,0.00,SCT,,0.00,WeatherDisplay:10.37,2013-05-21 03:05:00,
2013-05-20 23:10:00,67.6,63.6,29.95,North,360,4.6,4.6,87,0.00,SCT,,0.00,WeatherDisplay:10.37,2013-05-21 03:10:00,
2013-05-20 23:15:00,67.6,63.6,29.95,North,360,4.6,4.6,87,0.00,SCT,,0.00,WeatherDisplay:10.37,2013-05-21 03:15:00,
2013-05-20 23:20:00,66.2,62.2,29.95,North,360,4.6,4.6,87,0.00,SCT,,0.00,WeatherDisplay:10.37,2013-05-21 03:20:00,
2013-05-20 23:25:00,66.2,62.2,29.95,North,360,4.6,4.6,87,0.00,SCT,,0.00,WeatherDisplay:10.37,2013-05-21 03:25:00,
2013-05-20 23:30:00,66.2,62.2,29.95,North,360,4.6,4.6,87,0.00,SCT,,0.00,WeatherDisplay:10.37,2013-05-21 03:30:00,
2013-05-20 23:35:00,66.0,62.0,29.95,North,360,4.6,4.6,87,0.00,SCT,,0.00,WeatherDisplay:10.37,2013-05-21 03:35:00,
2013-05-20 23:40:00,66.0,62.0,29.95,North,360,4.6,4.6,87,0.00,SCT,,0.00,WeatherDisplay:10.37,2013-05-21 03:40:00,
2013-05-20 23:45:00,66.0,62.0,29.95,North,360,4.6,4.6,87,0.00,SCT,,0.00,WeatherDisplay:10.37,2013-05-21 03:45:00,
2013-05-20 23:50:00,66.0,62.0,29.95,North,360,4.6,4.6,87,0.00,SCT,,0.00,WeatherDisplay:10.37,2013-05-21 03:50:00,
2013-05-20 23:55:00,66.0,62.0,29.95,North,360,4.6,4.6,87,0.00,SCT,,0.00,WeatherDisplay:10.37,2013-05-21 03:55:00,